Time;durP1;ratioP1;P1;durP2;ratioP2;P2;SDS_P1;SDS_P2;PMS_P1;PMS_P2;Temp;Humidity;BMP_temperature;BMP_pressure;BME280_temperature;BME280_humidity;BME280_pressure;Samples;Min_cycle;Max_cycle;Signal;HPM_P1;HPM_P2
2023/08/21 00:00:32;;;;;;;;;;;;;;;20.76;78.65;102223.84;5017998;28;19912;-60
2023/08/21 00:02:57;;;;;;;;;;;;;;;20.74;78.77;102215.91;5023038;28;19920;-60
2023/08/21 00:05:22;;;;;;;;;;;;;;;20.60;77.67;102218.44;5027943;28;20143;-60
2023/08/21 00:07:50;;;;;;;;;;;;;;;20.36;78.27;102224.50;5023745;28;19925;-60
2023/08/21 00:10:16;;;;;;;;;;;;;;;20.19;79.11;102223.53;5015274;28;19968;-60
2023/08/21 00:12:41;;;;;;;;;;;;;;;20.04;79.55;102221.69;5015819;28;19913;-60
2023/08/21 00:15:06;;;;;;;;;;;;;;;19.95;80.19;102236.63;5022286;28;20123;-60
2023/08/21 00:17:32;;;;;;;;;;;;;;;19.89;81.44;102244.53;5022369;28;19916;-60
2023/08/21 00:19:57;;;;;;;;;;;;;;;19.90;81.36;102240.13;5022539;28;20099;-60
2023/08/21 00:22:23;;;;;;;;;;;;;;;19.88;80.97;102221.59;5019223;28;19956;-60
2023/08/21 00:24:48;;;;;;;;;;;;;;;19.73;81.43;102210.88;5024798;28;19909;-60
2023/08/21 00:27:13;;;;;;;;;;;;;;;19.65;81.93;102202.88;5019127;28;19979;-60
2023/08/21 00:29:38;;;;;;;;;;;;;;;19.68;81.77;102215.25;5018513;28;20122;-59
2023/08/21 00:32:04;;;;;;;;;;;;;;;19.74;82.02;102210.88;5020859;28;20166;-60
2023/08/21 00:34:29;;;;;;;;;;;;;;;19.82;82.44;102208.31;5023413;28;19910;-60
2023/08/21 00:36:54;;;;;;;;;;;;;;;19.89;81.82;102218.06;5021225;28;19906;-60
2023/08/21 00:39:19;;;;;;;;;;;;;;;19.91;81.73;102205.72;5021217;28;20070;-60
2023/08/21 00:41:44;;;;;;;;;;;;;;;19.91;81.65;102205.72;5021412;28;19905;-60
2023/08/21 00:44:10;;;;;;;;;;;;;;;19.95;81.68;102206.66;5024375;28;20126;-60
2023/08/21 00:46:35;;;;;;;;;;;;;;;19.96;81.40;102211.06;5021474;28;20047;-60
2023/08/21 00:49:01;;;;;;;;;;;;;;;19.98;81.50;102209.31;5022345;28;19912;-60
2023/08/21 00:51:27;;;;;;;;;;;;;;;20.00;81.64;102210.19;5023281;28;19927;-60
2023/08/21 00:53:52;;;;;;;;;;;;;;;20.02;81.59;102212.88;5019559;28;19906;-60
2023/08/21 00:56:18;;;;;;;;;;;;;;;19.96;81.43;102214.59;5009291;28;20084;-60
2023/08/21 00:58:43;;;;;;;;;;;;;;;19.90;81.61;102221.59;5023480;28;19909;-60
2023/08/21 01:01:09;;;;;;;;;;;;;;;19.85;82.18;102218.03;5014575;28;20063;-60
2023/08/21 01:03:34;;;;;;;;;;;;;;;19.80;82.23;102220.66;5023933;28;19964;-60
2023/08/21 01:05:59;;;;;;;;;;;;;;;19.82;82.21;102224.19;5011744;28;19936;-60
2023/08/21 01:08:40;;;;;;;;;;;;;;;19.88;82.23;102223.34;5021014;28;19916;-60
2023/08/21 01:11:14;;;;;;;;;;;;;;;19.82;81.38;102221.56;5035459;28;19963;-60
2023/08/21 01:14:01;;;;;;;;;;;;;;;19.66;81.50;102224.94;5007857;28;19921;-60
2023/08/21 01:16:27;;;;;;;;;;;;;;;19.51;82.92;102226.56;5011319;28;19987;-60
2023/08/21 01:18:54;;;;;;;;;;;;;;;19.52;82.49;102216.88;5016667;28;19905;-60
2023/08/21 01:21:19;;;;;;;;;;;;;;;19.39;83.73;102213.22;5016947;28;20143;-60
2023/08/21 01:23:44;;;;;;;;;;;;;;;19.22;83.87;102203.41;5014834;28;19909;-60
2023/08/21 01:26:10;;;;;;;;;;;;;;;19.19;84.34;102192.81;5014713;28;19921;-60
2023/08/21 01:28:35;;;;;;;;;;;;;;;19.24;84.49;102190.19;5014147;28;20143;-60
2023/08/21 01:31:10;;;;;;;;;;;;;;;19.28;84.57;102192.00;5016297;28;19967;-60
2023/08/21 01:33:40;;;;;;;;;;;;;;;19.32;84.06;102183.25;5020155;28;20215;-60
2023/08/21 01:36:05;;;;;;;;;;;;;;;19.35;83.77;102188.53;5013878;28;20132;-60
2023/08/21 01:38:32;;;;;;;;;;;;;;;19.33;83.99;102186.75;5017461;28;19963;-60
2023/08/21 01:40:58;;;;;;;;;;;;;;;19.26;84.67;102185.81;5015661;28;20063;-60
2023/08/21 01:43:23;;;;;;;;;;;;;;;19.15;84.88;102191.00;5025556;28;19945;-60
2023/08/21 01:45:48;;;;;;;;;;;;;;;19.09;85.07;102188.31;5022567;28;19905;-60
2023/08/21 01:48:14;;;;;;;;;;;;;;;19.15;85.07;102190.09;5020440;28;20089;-60
2023/08/21 01:50:39;;;;;;;;;;;;;;;19.17;85.27;102194.53;5021678;28;19960;-60
2023/08/21 01:53:04;;;;;;;;;;;;;;;19.18;85.32;102192.78;5015569;28;20131;-60
2023/08/21 01:55:29;;;;;;;;;;;;;;;19.19;85.24;102195.44;5018684;28;20183;-60
2023/08/21 01:57:54;;;;;;;;;;;;;;;19.20;85.08;102201.59;5019272;28;19937;-60
2023/08/21 02:00:19;;;;;;;;;;;;;;;19.08;83.56;102199.75;5010230;28;19951;-60
2023/08/21 02:02:45;;;;;;;;;;;;;;;18.84;84.18;102209.16;5013327;28;20157;-60
2023/08/21 02:05:10;;;;;;;;;;;;;;;18.68;85.12;102209.81;5015291;28;19906;-60
2023/08/21 02:07:35;;;;;;;;;;;;;;;18.63;85.81;102204.50;5019201;28;19905;-60
2023/08/21 02:10:00;;;;;;;;;;;;;;;18.65;85.64;102209.78;5022769;28;19912;-60
2023/08/21 02:12:25;;;;;;;;;;;;;;;18.67;85.68;102211.59;5022697;28;19901;-60
2023/08/21 02:14:51;;;;;;;;;;;;;;;18.70;85.18;102216.91;5034808;28;20000;-60
2023/08/21 02:17:16;;;;;;;;;;;;;;;18.76;85.65;102210.81;5017638;28;20844;-60
2023/08/21 02:19:41;;;;;;;;;;;;;;;18.82;85.38;102217.91;5021650;28;20054;-60
2023/08/21 02:22:06;;;;;;;;;;;;;;;18.82;85.24;102216.16;5020499;28;20107;-60
2023/08/21 02:24:31;;;;;;;;;;;;;;;18.85;85.62;102218.81;5011796;28;19964;-60
2023/08/21 02:26:57;;;;;;;;;;;;;;;18.87;85.20;102211.84;5019823;28;19973;-60
2023/08/21 02:29:22;;;;;;;;;;;;;;;18.87;85.13;102217.13;5020239;28;20019;-60
2023/08/21 02:31:47;;;;;;;;;;;;;;;18.84;85.37;102211.78;5024784;28;20154;-60
2023/08/21 02:34:12;;;;;;;;;;;;;;;18.83;85.34;102215.28;5023370;28;19964;-60
2023/08/21 02:36:37;;;;;;;;;;;;;;;18.82;85.21;102213.50;5019619;28;19913;-60
2023/08/21 02:39:03;;;;;;;;;;;;;;;18.82;85.19;102213.50;5018964;28;19905;-60
2023/08/21 02:41:28;;;;;;;;;;;;;;;18.81;85.19;102201.16;5021802;28;19921;-60
2023/08/21 02:43:54;;;;;;;;;;;;;;;18.76;85.26;102214.31;5020438;28;20148;-60
2023/08/21 02:46:19;;;;;;;;;;;;;;;18.71;85.36;102205.47;5024222;28;19905;-60
2023/08/21 02:48:44;;;;;;;;;;;;;;;18.64;85.31;102203.63;5025611;28;19913;-60
2023/08/21 02:51:10;;;;;;;;;;;;;;;18.57;85.62;102205.31;5019441;28;19906;-60
2023/08/21 02:53:35;;;;;;;;;;;;;;;18.54;85.79;102201.75;5019411;28;20055;-60
2023/08/21 02:56:00;;;;;;;;;;;;;;;18.52;85.76;102208.75;5015228;28;20131;-60
2023/08/21 02:58:25;;;;;;;;;;;;;;;18.48;85.96;102209.56;5025712;28;19913;-60
2023/08/21 03:00:50;;;;;;;;;;;;;;;18.42;85.92;102206.00;5029232;28;19968;-59
2023/08/21 03:03:16;;;;;;;;;;;;;;;18.39;85.93;102208.59;5024157;28;19910;-60
2023/08/21 03:05:41;;;;;;;;;;;;;;;18.39;85.92;102207.69;5018151;28;19905;-60
2023/08/21 03:08:06;;;;;;;;;;;;;;;18.36;86.00;102210.31;5011197;28;20033;-60
2023/08/21 03:10:33;;;;;;;;;;;;;;;18.33;85.46;102208.50;5023825;28;19913;-60
2023/08/21 03:12:59;;;;;;;;;;;;;;;18.35;85.85;102205.88;5016442;28;20239;-60
2023/08/21 03:15:24;;;;;;;;;;;;;;;18.34;85.90;102206.78;5016982;28;19921;-60
2023/08/21 03:17:49;;;;;;;;;;;;;;;18.32;85.90;102205.84;5017122;28;19901;-60
2023/08/21 03:20:14;;;;;;;;;;;;;;;18.30;86.23;102212.88;5016478;28;19917;-60
2023/08/21 03:22:40;;;;;;;;;;;;;;;18.24;86.21;102209.28;5017174;28;19963;-60
2023/08/21 03:25:06;;;;;;;;;;;;;;;18.18;86.56;102213.59;5015706;28;19984;-60
2023/08/21 03:27:31;;;;;;;;;;;;;;;18.14;86.52;102217.91;5025860;28;20100;-60
2023/08/21 03:29:56;;;;;;;;;;;;;;;18.10;86.52;102213.47;5019965;28;19976;-59
2023/08/21 03:32:21;;;;;;;;;;;;;;;18.11;86.81;102217.00;5023078;28;19972;-60
2023/08/21 03:34:47;;;;;;;;;;;;;;;18.10;86.63;102213.47;5022887;28;19933;-60
2023/08/21 03:37:12;;;;;;;;;;;;;;;18.08;87.11;102216.09;5025792;28;19906;-60
2023/08/21 03:39:38;;;;;;;;;;;;;;;18.05;87.00;102215.16;5013375;28;20150;-60
2023/08/21 03:42:04;;;;;;;;;;;;;;;18.00;87.34;102208.94;5026823;28;19917;-60
2023/08/21 03:44:29;;;;;;;;;;;;;;;17.97;87.64;102219.44;5025470;28;19910;-60
2023/08/21 03:46:54;;;;;;;;;;;;;;;17.94;87.79;102215.00;5024658;28;19913;-60
2023/08/21 03:49:19;;;;;;;;;;;;;;;17.93;87.71;102212.34;5021596;28;19905;-60
2023/08/21 03:51:45;;;;;;;;;;;;;;;17.93;87.67;102199.16;5016036;28;20095;-60
2023/08/21 03:54:10;;;;;;;;;;;;;;;17.94;88.01;102204.44;5025548;28;19904;-60
2023/08/21 03:56:36;;;;;;;;;;;;;;;17.97;87.20;102214.16;5021608;28;19905;-60
2023/08/21 03:59:01;;;;;;;;;;;;;;;17.97;87.54;102208.88;5015185;28;19913;-60
2023/08/21 04:01:26;;;;;;;;;;;;;;;17.96;87.35;102215.00;5025941;28;19947;-60
2023/08/21 04:03:51;;;;;;;;;;;;;;;17.93;87.00;102205.31;5024446;28;19914;-59
2023/08/21 04:06:16;;;;;;;;;;;;;;;17.93;87.17;102210.59;5026839;28;19906;-60
2023/08/21 04:08:42;;;;;;;;;;;;;;;17.94;87.43;102206.19;5014516;28;19905;-60
2023/08/21 04:11:07;;;;;;;;;;;;;;;17.93;87.08;102212.34;5022580;28;19977;-60
2023/08/21 04:13:32;;;;;;;;;;;;;;;17.89;87.29;102217.53;5022591;28;19906;-60
2023/08/21 04:15:58;;;;;;;;;;;;;;;17.86;87.33;102209.56;5018854;28;19972;-60
2023/08/21 04:18:23;;;;;;;;;;;;;;;17.86;87.70;102213.97;5021600;28;20094;-60
2023/08/21 04:20:48;;;;;;;;;;;;;;;17.83;87.71;102209.53;5023881;28;20140;-60
2023/08/21 04:23:13;;;;;;;;;;;;;;;17.80;87.40;102216.50;5015789;28;19916;-59
2023/08/21 04:25:38;;;;;;;;;;;;;;;17.75;87.56;102224.34;5015634;28;19914;-59
2023/08/21 04:28:04;;;;;;;;;;;;;;;17.69;87.97;102229.50;5022540;28;19902;-60
2023/08/21 04:30:29;;;;;;;;;;;;;;;17.61;87.51;102226.78;5019921;28;19913;-60
2023/08/21 04:32:54;;;;;;;;;;;;;;;17.58;87.93;102233.72;5013755;28;20140;-60
2023/08/21 04:35:19;;;;;;;;;;;;;;;17.55;88.21;102243.38;5023594;28;20081;-59
2023/08/21 04:37:46;;;;;;;;;;;;;;;17.54;88.75;102240.69;5013907;28;19964;-60
2023/08/21 04:40:12;;;;;;;;;;;;;;;17.53;88.56;102239.78;5026061;28;19905;-60
2023/08/21 04:42:37;;;;;;;;;;;;;;;17.54;88.49;102230.16;5025547;28;20044;-60
2023/08/21 04:45:02;;;;;;;;;;;;;;;17.58;89.13;102236.34;5014834;28;19917;-60
2023/08/21 04:47:27;;;;;;;;;;;;;;;17.60;89.20;102245.16;5023936;28;20032;-60
2023/08/21 04:49:53;;;;;;;;;;;;;;;17.64;89.26;102237.34;5025827;28;19905;-60
2023/08/21 04:52:19;;;;;;;;;;;;;;;17.68;87.85;102238.28;5014785;28;20179;-60
2023/08/21 04:54:44;;;;;;;;;;;;;;;17.66;88.47;102234.75;5018208;28;20059;-60
2023/08/21 04:57:09;;;;;;;;;;;;;;;17.58;89.66;102245.13;5022075;28;19905;-59
2023/08/21 04:59:35;;;;;;;;;;;;;;;17.52;90.06;102252.94;5015252;28;19905;-60
2023/08/21 05:02:01;;;;;;;;;;;;;;;17.49;90.72;102248.50;5014890;28;19980;-60
2023/08/21 05:04:26;;;;;;;;;;;;;;;17.53;89.55;102246.81;5017637;28;19906;-60
2023/08/21 05:06:51;;;;;;;;;;;;;;;17.53;90.22;102246.81;5026764;28;20272;-60
2023/08/21 05:09:17;;;;;;;;;;;;;;;17.54;90.90;102246.84;5021209;28;20173;-60
2023/08/21 05:11:42;;;;;;;;;;;;;;;17.59;91.23;102253.94;5019476;28;19913;-60
2023/08/21 05:14:07;;;;;;;;;;;;;;;17.56;91.29;102250.38;5028803;28;19916;-60
2023/08/21 05:16:32;;;;;;;;;;;;;;;17.55;91.11;102256.53;5024817;28;20094;-60
2023/08/21 05:18:57;;;;;;;;;;;;;;;17.54;91.23;102257.38;5025539;28;20319;-60
2023/08/21 05:21:23;;;;;;;;;;;;;;;17.54;90.96;102257.38;5025344;28;20137;-60
2023/08/21 05:23:48;;;;;;;;;;;;;;;17.49;91.10;102258.16;5025084;28;19926;-60
2023/08/21 05:26:13;;;;;;;;;;;;;;;17.50;91.34;102255.56;5025170;28;19988;-60
2023/08/21 05:28:38;;;;;;;;;;;;;;;17.54;91.61;102257.38;5025839;28;19960;-60
2023/08/21 05:31:03;;;;;;;;;;;;;;;17.59;91.29;102269.78;5015082;28;20257;-60
2023/08/21 05:33:29;;;;;;;;;;;;;;;17.63;91.43;102266.31;5014472;28;19981;-60
2023/08/21 05:35:56;;;;;;;;;;;;;;;17.68;91.29;102264.63;5020431;28;19955;-60
2023/08/21 05:38:21;;;;;;;;;;;;;;;17.75;91.33;102276.19;5019706;28;19905;-60
2023/08/21 05:40:47;;;;;;;;;;;;;;;17.80;91.84;102270.13;5023276;28;20036;-60
2023/08/21 05:43:12;;;;;;;;;;;;;;;17.85;91.57;102272.84;5014695;28;19910;-60
2023/08/21 05:45:38;;;;;;;;;;;;;;;17.89;91.63;102272.91;5010971;28;20059;-60
2023/08/21 05:48:03;;;;;;;;;;;;;;;17.92;91.73;102273.88;5019102;28;19912;-60
2023/08/21 05:50:28;;;;;;;;;;;;;;;17.94;91.74;102272.13;5012023;28;19933;-60
2023/08/21 05:52:54;;;;;;;;;;;;;;;17.95;91.42;102274.78;5021642;28;20602;-60
2023/08/21 05:55:19;;;;;;;;;;;;;;;17.96;91.67;102265.13;5014445;28;19917;-60
2023/08/21 05:57:44;;;;;;;;;;;;;;;17.98;91.89;102268.69;5009226;28;19905;-60
2023/08/21 06:00:10;;;;;;;;;;;;;;;17.98;92.12;102279.25;5011787;28;20098;-59
2023/08/21 06:02:35;;;;;;;;;;;;;;;18.00;92.20;102269.59;5018990;28;19916;-60
2023/08/21 06:05:00;;;;;;;;;;;;;;;18.00;92.45;102282.78;5022791;28;19924;-60
2023/08/21 06:07:26;;;;;;;;;;;;;;;18.00;92.87;102280.13;5023449;28;19913;-60
2023/08/21 06:09:51;;;;;;;;;;;;;;;18.01;92.93;102277.50;5019132;28;19912;-60
2023/08/21 06:12:16;;;;;;;;;;;;;;;18.04;93.02;102285.47;5020925;28;20044;-60
2023/08/21 06:14:41;;;;;;;;;;;;;;;18.07;92.99;102284.66;5019821;28;19940;-60
2023/08/21 06:17:06;;;;;;;;;;;;;;;18.10;93.13;102284.69;5014389;28;19906;-60
2023/08/21 06:19:32;;;;;;;;;;;;;;;18.16;93.18;102286.53;5019851;28;19912;-60
2023/08/21 06:21:58;;;;;;;;;;;;;;;18.19;93.14;102290.13;5013826;28;19937;-60
2023/08/21 06:24:25;;;;;;;;;;;;;;;18.22;93.60;102284.88;5022338;28;21453;-60
2023/08/21 06:26:51;;;;;;;;;;;;;;;18.27;93.18;102292.00;5018233;28;19913;-60
2023/08/21 06:29:16;;;;;;;;;;;;;;;18.29;92.44;102287.59;5009584;28;20969;-60
2023/08/21 06:31:42;;;;;;;;;;;;;;;18.31;92.91;102291.19;5017360;28;19973;-60
2023/08/21 06:34:07;;;;;;;;;;;;;;;18.33;93.27;102292.06;5012604;28;19901;-60
2023/08/21 06:36:32;;;;;;;;;;;;;;;18.39;93.31;102297.44;5014068;28;20131;-60
2023/08/21 06:38:57;;;;;;;;;;;;;;;18.45;93.44;102297.53;5021412;28;19902;-60
2023/08/21 06:41:24;;;;;;;;;;;;;;;18.48;93.01;102294.94;5014711;28;20225;-60
2023/08/21 06:43:49;;;;;;;;;;;;;;;18.52;92.06;102294.09;5020130;28;19909;-60
2023/08/21 06:46:14;;;;;;;;;;;;;;;18.55;93.00;102293.25;5016327;28;20139;-60
2023/08/21 06:48:43;;;;;;;;;;;;;;;18.59;93.49;102293.31;5017722;28;19921;-60
2023/08/21 06:51:08;;;;;;;;;;;;;;;18.65;92.47;102289.00;5014774;28;19906;-60
2023/08/21 06:53:34;;;;;;;;;;;;;;;18.66;92.79;102290.78;5009678;28;19977;-60
2023/08/21 06:55:59;;;;;;;;;;;;;;;18.68;92.76;102294.31;5018635;28;20004;-60
2023/08/21 06:58:24;;;;;;;;;;;;;;;18.72;93.41;102293.50;5019894;28;20139;-60
2023/08/21 07:00:49;;;;;;;;;;;;;;;18.76;92.68;102290.91;5013966;28;19905;-60
2023/08/21 07:03:14;;;;;;;;;;;;;;;18.85;93.12;102297.19;5024293;28;19956;-60
2023/08/21 07:05:40;;;;;;;;;;;;;;;18.92;93.25;102291.13;5020889;28;20151;-60
2023/08/21 07:08:05;;;;;;;;;;;;;;;19.00;93.10;102285.94;5011566;28;19948;-60
2023/08/21 07:10:35;;;;;;;;;;;;;;;19.07;92.99;102287.78;5017898;28;19905;-60
2023/08/21 07:13:00;;;;;;;;;;;;;;;19.18;92.25;102291.44;5016027;28;19905;-60
2023/08/21 07:15:25;;;;;;;;;;;;;;;19.28;91.89;102303.88;5015834;28;20117;-60
2023/08/21 07:17:50;;;;;;;;;;;;;;;19.34;91.53;102299.53;5015312;28;20185;-60
2023/08/21 07:20:16;;;;;;;;;;;;;;;19.42;91.51;102303.13;5020834;28;20517;-60
2023/08/21 07:22:41;;;;;;;;;;;;;;;19.48;91.80;102302.31;5019596;28;19909;-60
2023/08/21 07:25:06;;;;;;;;;;;;;;;19.51;91.28;102297.97;5016960;28;20113;-60
2023/08/21 07:27:32;;;;;;;;;;;;;;;19.56;91.39;102290.94;5020455;28;20075;-60
2023/08/21 07:29:57;;;;;;;;;;;;;;;19.60;91.49;102295.38;5015437;28;20139;-60
2023/08/21 07:32:22;;;;;;;;;;;;;;;19.66;90.81;102291.03;5016832;28;21422;-60
2023/08/21 07:34:47;;;;;;;;;;;;;;;19.73;91.12;102298.16;5021384;28;20231;-60
2023/08/21 07:37:12;;;;;;;;;;;;;;;19.80;91.22;102294.72;5015393;28;19905;-61
2023/08/21 07:39:37;;;;;;;;;;;;;;;19.86;90.92;102307.13;5015297;28;19952;-60
2023/08/21 07:42:03;;;;;;;;;;;;;;;19.89;91.33;102301.84;5024061;28;20079;-60
2023/08/21 07:44:28;;;;;;;;;;;;;;;19.92;91.38;102301.88;5018604;28;19928;-60
2023/08/21 07:46:53;;;;;;;;;;;;;;;19.96;91.50;102308.97;5023209;28;21120;-61
2023/08/21 07:49:18;;;;;;;;;;;;;;;20.04;92.06;102304.59;5019228;28;20031;-60
2023/08/21 07:51:44;;;;;;;;;;;;;;;20.12;90.31;102300.25;5020375;28;19913;-60
2023/08/21 07:54:09;;;;;;;;;;;;;;;20.20;91.38;102302.06;5019777;28;20166;-61
2023/08/21 07:56:35;;;;;;;;;;;;;;;20.28;91.23;102303.91;5023493;28;19914;-60
2023/08/21 07:59:01;;;;;;;;;;;;;;;20.43;89.95;102303.09;5021965;28;19929;-60
2023/08/21 08:01:26;;;;;;;;;;;;;;;20.55;90.35;102302.31;5021359;28;19909;-61
2023/08/21 08:03:52;;;;;;;;;;;;;;;20.68;89.99;102305.91;5028596;28;20049;-61
2023/08/21 08:06:18;;;;;;;;;;;;;;;20.86;89.91;102298.97;5024857;28;19936;-61
2023/08/21 08:08:43;;;;;;;;;;;;;;;21.00;89.71;102306.06;5027272;28;19905;-61
2023/08/21 08:11:08;;;;;;;;;;;;;;;21.18;89.02;102309.66;5026296;28;19943;-61
2023/08/21 08:13:34;;;;;;;;;;;;;;;21.22;87.02;102311.44;5021671;28;19905;-68
2023/08/21 08:15:59;;;;;;;;;;;;;;;21.25;87.32;102306.13;5029596;28;19909;-61
2023/08/21 08:18:24;;;;;;;;;;;;;;;21.30;88.18;102317.63;5025186;28;19928;-61
2023/08/21 08:20:49;;;;;;;;;;;;;;;21.36;87.53;102314.09;5016567;28;20285;-61
2023/08/21 08:23:14;;;;;;;;;;;;;;;21.41;87.61;102312.38;5017464;28;20170;-61
2023/08/21 08:25:40;;;;;;;;;;;;;;;21.50;86.84;102319.44;5021244;28;20120;-61
2023/08/21 08:28:05;;;;;;;;;;;;;;;21.57;86.56;102315.97;5027498;28;19905;-61
2023/08/21 08:30:30;;;;;;;;;;;;;;;21.66;83.02;102307.13;5027966;28;19905;-61
2023/08/21 08:32:55;;;;;;;;;;;;;;;21.68;84.23;102311.56;5028052;28;20005;-61
2023/08/21 08:35:20;;;;;;;;;;;;;;;21.75;85.15;102308.91;5022584;28;19906;-61
2023/08/21 08:37:46;;;;;;;;;;;;;;;21.82;84.65;102313.31;5023271;28;19964;-61
2023/08/21 08:40:11;;;;;;;;;;;;;;;21.86;84.32;102315.09;5025463;28;19906;-61
2023/08/21 08:42:36;;;;;;;;;;;;;;;21.86;83.60;102313.31;5023807;28;20158;-61
2023/08/21 08:45:03;;;;;;;;;;;;;;;21.89;83.75;102309.78;5024245;28;19917;-61
2023/08/21 08:47:29;;;;;;;;;;;;;;;21.92;83.67;102316.88;5032580;28;19944;-61
2023/08/21 08:49:54;;;;;;;;;;;;;;;21.92;83.47;102323.03;5024920;28;19909;-61
2023/08/21 08:52:20;;;;;;;;;;;;;;;21.99;83.42;102327.47;5015451;28;20139;-61
2023/08/21 08:54:45;;;;;;;;;;;;;;;22.20;83.29;102323.94;5022677;28;19917;-61
2023/08/21 08:57:10;;;;;;;;;;;;;;;22.36;81.83;102318.59;5016618;28;19906;-61
2023/08/21 08:59:36;;;;;;;;;;;;;;;22.48;81.32;102328.31;5021643;28;19901;-61
2023/08/21 09:02:01;;;;;;;;;;;;;;;22.49;80.34;102324.78;5021185;28;19949;-70
2023/08/21 09:04:26;;;;;;;;;;;;;;;22.60;79.61;102330.94;5016823;28;20032;-61
2023/08/21 09:06:51;;;;;;;;;;;;;;;22.64;78.98;102322.09;5021231;28;19928;-61
2023/08/21 09:09:16;;;;;;;;;;;;;;;22.65;78.67;102317.66;5017814;28;19906;-61
2023/08/21 09:11:43;;;;;;;;;;;;;;;22.64;78.86;102313.22;5021525;28;19912;-61
2023/08/21 09:14:09;;;;;;;;;;;;;;;22.65;78.91;102315.91;5023945;28;19905;-61
2023/08/21 09:16:34;;;;;;;;;;;;;;;22.68;79.03;102314.97;5022256;28;19915;-61
2023/08/21 09:19:00;;;;;;;;;;;;;;;22.85;78.61;102310.47;5025425;28;19905;-61
2023/08/21 09:21:25;;;;;;;;;;;;;;;23.01;78.32;102303.31;5023503;28;19984;-61
2023/08/21 09:23:57;;;;;;;;;;;;;;;23.04;77.14;102302.44;5025954;28;19965;-61
2023/08/21 09:26:23;;;;;;;;;;;;;;;23.06;77.25;102304.19;5025800;28;19901;-61
2023/08/21 09:28:49;;;;;;;;;;;;;;;23.16;76.90;102312.13;5026551;28;20082;-61
2023/08/21 09:31:15;;;;;;;;;;;;;;;23.20;77.23;102300.59;5023548;28;19905;-61
2023/08/21 09:33:40;;;;;;;;;;;;;;;23.33;76.43;102298.75;5025206;28;19944;-61
2023/08/21 09:36:05;;;;;;;;;;;;;;;23.55;76.58;102303.03;5025192;28;20138;-62
2023/08/21 09:38:31;;;;;;;;;;;;;;;23.76;75.12;102306.44;5024849;28;19913;-63
2023/08/21 09:40:56;;;;;;;;;;;;;;;23.99;74.59;102300.94;5018631;28;19943;-62
2023/08/21 09:43:24;;;;;;;;;;;;;;;24.18;74.49;102298.09;5018193;28;19914;-62
2023/08/21 09:45:55;;;;;;;;;;;;;;;24.37;74.57;102298.78;5026957;28;20249;-61
2023/08/21 09:48:26;;;;;;;;;;;;;;;24.57;74.02;102293.22;5010617;28;20007;-62
2023/08/21 09:50:52;;;;;;;;;;;;;;;24.68;72.06;102291.34;5012479;28;19960;-62
2023/08/21 09:53:17;;;;;;;;;;;;;;;24.78;71.30;102298.34;5014779;28;19917;-62
2023/08/21 09:55:42;;;;;;;;;;;;;;;24.99;70.93;102288.28;5013397;28;19933;-62
2023/08/21 09:58:08;;;;;;;;;;;;;;;25.18;70.25;102296.91;5013276;28;20058;-60
2023/08/21 10:00:34;;;;;;;;;;;;;;;25.35;67.90;102296.69;5014996;28;20190;-60
2023/08/21 10:03:04;;;;;;;;;;;;;;;25.45;65.30;102295.66;5016694;28;19914;-60
2023/08/21 10:05:33;;;;;;;;;;;;;;;25.53;66.11;102295.50;5013255;28;19970;-59
2023/08/21 10:08:02;;;;;;;;;;;;;;;25.61;68.79;102296.28;5014376;28;19913;-60
2023/08/21 10:10:29;;;;;;;;;;;;;;;25.74;66.16;102286.28;5010928;28;20828;-60
2023/08/21 10:12:54;;;;;;;;;;;;;;;25.89;65.42;102294.94;5013957;28;19924;-60
2023/08/21 10:15:20;;;;;;;;;;;;;;;25.92;64.67;102289.53;5014684;28;19914;-60
2023/08/21 10:17:45;;;;;;;;;;;;;;;25.84;62.53;102282.53;5026052;28;20051;-60
2023/08/21 10:20:10;;;;;;;;;;;;;;;25.84;65.84;102277.22;5016479;28;19952;-59
2023/08/21 10:22:39;;;;;;;;;;;;;;;25.98;62.68;102284.97;5014730;28;20145;-60
2023/08/21 10:25:13;;;;;;;;;;;;;;;26.11;63.34;102277.63;5014796;28;20096;-59
2023/08/21 10:27:40;;;;;;;;;;;;;;;26.16;64.85;102283.78;5014191;28;19936;-59
2023/08/21 10:30:15;;;;;;;;;;;;;;;26.26;64.63;102278.25;5014627;28;19909;-60
2023/08/21 10:32:48;;;;;;;;;;;;;;;26.36;63.73;102275.38;5017719;28;20021;-61
2023/08/21 10:35:18;;;;;;;;;;;;;;;26.53;63.32;102269.72;5015913;28;19906;-60
2023/08/21 10:38:02;;;;;;;;;;;;;;;26.73;62.97;102269.28;5017924;28;19905;-60
2023/08/21 10:40:28;;;;;;;;;;;;;;;26.86;62.33;102274.38;5023893;28;19922;-62
2023/08/21 10:42:54;;;;;;;;;;;;;;;26.97;63.11;102275.03;5021871;28;19970;-60
2023/08/21 10:45:19;;;;;;;;;;;;;;;27.15;63.28;102271.03;5022567;28;19906;-59
2023/08/21 10:47:46;;;;;;;;;;;;;;;27.19;62.91;102271.88;5024189;28;19901;-61
2023/08/21 10:50:12;;;;;;;;;;;;;;;27.23;62.13;102274.44;5020778;28;20210;-60
2023/08/21 10:52:39;;;;;;;;;;;;;;;27.40;58.84;102273.16;5015499;28;19906;-60
2023/08/21 10:55:05;;;;;;;;;;;;;;;27.33;53.75;102277.78;5028225;28;19906;-60
2023/08/21 10:57:31;;;;;;;;;;;;;;;27.14;56.04;102290.72;5026346;28;19905;-60
2023/08/21 11:00:04;;;;;;;;;;;;;;;27.12;57.52;102286.31;5027773;28;20257;-59
2023/08/21 11:02:30;;;;;;;;;;;;;;;27.27;58.73;102279.72;5037189;28;19909;-60
2023/08/21 11:04:56;;;;;;;;;;;;;;;27.40;57.48;102276.75;5027767;28;19917;-59
2023/08/21 11:07:21;;;;;;;;;;;;;;;27.48;57.47;102271.19;5038483;28;19937;-59
2023/08/21 11:09:47;;;;;;;;;;;;;;;27.54;57.92;102278.19;5035447;28;19961;-59
2023/08/21 11:12:14;;;;;;;;;;;;;;;27.68;57.86;102278.72;5034010;28;19901;-60
2023/08/21 11:14:40;;;;;;;;;;;;;;;27.72;58.61;102275.06;5029993;28;19956;-61
2023/08/21 11:17:05;;;;;;;;;;;;;;;27.88;57.54;102270.19;5026725;28;19932;-60
2023/08/21 11:19:31;;;;;;;;;;;;;;;27.97;57.86;102271.72;5027626;28;20040;-60
2023/08/21 11:21:59;;;;;;;;;;;;;;;27.99;57.33;102266.34;5027057;28;20103;-60
2023/08/21 11:24:29;;;;;;;;;;;;;;;27.99;58.21;102261.88;5027104;28;19909;-60
2023/08/21 11:26:54;;;;;;;;;;;;;;;28.11;58.12;102257.97;5023969;28;19941;-60
2023/08/21 11:29:20;;;;;;;;;;;;;;;28.12;57.14;102270.47;5013624;28;19940;-60
2023/08/21 11:31:47;;;;;;;;;;;;;;;27.99;58.23;102263.69;5027159;28;20036;-60
2023/08/21 11:34:17;;;;;;;;;;;;;;;28.10;58.05;102262.47;5024957;28;19905;-60
2023/08/21 11:36:43;;;;;;;;;;;;;;;28.22;54.24;102261.22;5020615;28;19968;-59
2023/08/21 11:39:08;;;;;;;;;;;;;;;28.24;57.85;102258.50;5026885;28;20059;-60
2023/08/21 11:41:52;;;;;;;;;;;;;;;28.48;56.36;102262.28;5026561;28;20147;-60
2023/08/21 11:44:17;;;;;;;;;;;;;;;28.72;55.72;102259.84;5025753;28;19905;-61
2023/08/21 11:46:42;;;;;;;;;;;;;;;28.76;54.45;102261.50;5026749;28;19956;-60
2023/08/21 11:49:08;;;;;;;;;;;;;;;28.42;54.42;102252.63;5026499;28;19905;-61
2023/08/21 11:51:38;;;;;;;;;;;;;;;28.44;56.24;102256.13;5016466;28;19913;-60
2023/08/21 11:54:04;;;;;;;;;;;;;;;28.50;55.38;102255.06;5021274;28;19933;-61
2023/08/21 11:56:29;;;;;;;;;;;;;;;28.55;55.98;102246.91;5026734;28;19944;-60
2023/08/21 11:58:54;;;;;;;;;;;;;;;28.51;56.40;102251.47;5027117;28;19905;-60
2023/08/21 12:01:20;;;;;;;;;;;;;;;28.51;54.37;102254.16;5026572;28;19906;-60
2023/08/21 12:03:45;;;;;;;;;;;;;;;28.21;54.06;102254.09;5027295;28;20055;-60
2023/08/21 12:06:11;;;;;;;;;;;;;;;27.87;56.38;102260.38;5024777;28;19969;-60
2023/08/21 12:08:37;;;;;;;;;;;;;;;27.93;57.37;102260.19;5012604;28;19906;-60
2023/08/21 12:11:02;;;;;;;;;;;;;;;28.16;57.36;102256.06;5011548;28;19920;-59
2023/08/21 12:13:27;;;;;;;;;;;;;;;28.26;57.85;102246.81;5017677;28;19949;-59
2023/08/21 12:15:53;;;;;;;;;;;;;;;28.23;57.34;102254.09;5020335;28;19944;-60
2023/08/21 12:18:18;;;;;;;;;;;;;;;28.03;57.19;102251.97;5029216;28;19909;-60
2023/08/21 12:20:43;;;;;;;;;;;;;;;28.03;58.37;102249.28;5032139;28;20159;-60
2023/08/21 12:23:08;;;;;;;;;;;;;;;28.25;57.68;102237.03;5034694;28;19984;-61
2023/08/21 12:25:33;;;;;;;;;;;;;;;28.54;57.21;102240.66;5029085;28;19910;-60
2023/08/21 12:27:58;;;;;;;;;;;;;;;28.49;53.72;102234.56;5027729;28;20135;-61